Time;durP1;ratioP1;P1;durP2;ratioP2;P2;SDS_P1;SDS_P2;PMS_P1;PMS_P2;Temp;Humidity;BMP_temperature;BMP_pressure;BME280_temperature;BME280_humidity;BME280_pressure;Samples;Min_cycle;Max_cycle;Signal;HPM_P1;HPM_P2
2022/06/11 00:01:31;;;;;;;28.38;22.10;;;20.30;89.10;;;;;;5104723;28;20086;-55
2022/06/11 00:04:22;;;;;;;17.48;12.98;;;20.40;89.20;;;;;;5092175;28;20465;-58
2022/06/11 00:07:10;;;;;;;9.65;8.52;;;20.40;89.40;;;;;;5105507;28;20046;-54
2022/06/11 00:09:54;;;;;;;11.18;7.95;;;20.20;88.60;;;;;;5097635;28;20097;-55
2022/06/11 00:12:38;;;;;;;10.40;8.15;;;20.10;87.90;;;;;;5080182;28;20098;-55
2022/06/11 00:15:23;;;;;;;8.35;7.45;;;20.00;87.50;;;;;;5092387;28;20407;-56
2022/06/11 00:18:07;;;;;;;8.50;7.50;;;19.90;88.40;;;;;;5092715;28;20178;-51
2022/06/11 00:20:52;;;;;;;8.80;7.53;;;19.90;89.00;;;;;;5093302;28;20668;-54
2022/06/11 00:23:37;;;;;;;7.85;7.05;;;19.90;89.10;;;;;;5112823;28;20119;-55
2022/06/11 00:26:22;;;;;;;9.52;7.43;;;20.00;89.00;;;;;;5111573;28;20089;-56
2022/06/11 00:29:06;;;;;;;15.00;12.18;;;19.90;89.60;;;;;;5133747;28;20110;-55
2022/06/11 00:31:50;;;;;;;;;;;19.90;90.10;;;;;;5117171;28;20038;-56
2022/06/11 00:34:36;;;;;;;11.57;9.68;;;19.80;90.40;;;;;;5112296;28;19914;-56
2022/06/11 00:37:20;;;;;;;9.63;8.00;;;19.80;90.50;;;;;;5093623;28;20039;-54
2022/06/11 00:40:07;;;;;;;9.52;7.90;;;19.70;90.70;;;;;;5092316;28;20036;-51
2022/06/11 00:42:51;;;;;;;8.82;7.70;;;19.70;90.80;;;;;;5103998;28;20066;-53
2022/06/11 00:45:58;;;;;;;9.13;7.82;;;19.70;90.90;;;;;;5128218;28;20078;-52
2022/06/11 00:48:42;;;;;;;9.32;7.93;;;19.70;90.80;;;;;;5096041;28;20103;-53
2022/06/11 00:51:27;;;;;;;10.05;7.68;;;19.70;90.50;;;;;;5104163;28;20082;-52
2022/06/11 00:54:14;;;;;;;;;;;19.50;90.50;;;;;;5116462;28;20041;-54
2022/06/11 00:57:00;;;;;;;9.25;7.80;;;19.30;91.30;;;;;;5102412;28;19957;-55
2022/06/11 00:59:50;;;;;;;7.60;6.90;;;19.20;91.40;;;;;;5095313;28;20107;-54
2022/06/11 01:02:37;;;;;;;7.45;6.63;;;19.10;91.40;;;;;;5112350;28;20103;-54
2022/06/11 01:05:25;;;;;;;10.40;8.25;;;19.10;91.80;;;;;;5115260;28;20808;-55
2022/06/11 01:08:16;;;;;;;7.90;7.18;;;19.10;91.70;;;;;;5095943;28;20410;-56
2022/06/11 01:11:19;;;;;;;7.78;6.70;;;19.20;91.50;;;;;;5098440;28;20054;-54
2022/06/11 01:14:06;;;;;;;10.82;7.07;;;19.40;91.30;;;;;;5116056;28;20031;-53
2022/06/11 01:17:06;;;;;;;9.95;7.45;;;19.40;91.30;;;;;;5099626;28;20047;-53
2022/06/11 01:20:12;;;;;;;10.77;7.85;;;19.30;91.70;;;;;;5096359;28;20043;-55
2022/06/11 01:23:15;;;;;;;9.55;7.78;;;19.20;91.70;;;;;;5095351;28;20038;-52
2022/06/11 01:26:31;;;;;;;9.90;8.45;;;19.20;91.60;;;;;;5101293;28;20564;-57
2022/06/11 01:29:21;;;;;;;9.30;7.97;;;19.20;91.70;;;;;;5115667;28;20107;-54
2022/06/11 01:32:21;;;;;;;10.68;7.57;;;19.30;91.60;;;;;;5113243;28;20031;-56
2022/06/11 01:35:46;;;;;;;8.30;7.30;;;19.20;91.70;;;;;;5114858;28;20529;-54
2022/06/11 01:38:43;;;;;;;7.57;6.80;;;19.20;91.60;;;;;;5094161;28;20039;-55
2022/06/11 01:41:58;;;;;;;8.60;7.68;;;19.20;91.90;;;;;;5104355;28;20115;-54
2022/06/11 01:44:43;;;;;;;7.57;6.88;;;19.30;91.90;;;;;;5115364;28;20031;-53
2022/06/11 01:47:27;;;;;;;8.77;7.90;;;19.30;91.90;;;;;;5113557;28;20043;-50
2022/06/11 01:50:17;;;;;;;8.90;8.02;;;19.20;91.90;;;;;;5114720;28;20150;-53
2022/06/11 01:53:04;;;;;;;9.30;8.15;;;19.30;91.70;;;;;;5094292;28;20115;-53
2022/06/11 01:56:07;;;;;;;9.75;8.18;;;19.30;91.40;;;;;;5094076;28;20581;-50
2022/06/11 01:59:06;;;;;;;8.73;7.78;;;19.10;90.90;;;;;;5111126;27;20070;-57
2022/06/11 02:02:10;;;;;;;10.73;8.18;;;19.10;91.20;;;;;;5111461;27;20047;-52
2022/06/11 02:05:16;;;;;;;13.33;7.80;;;19.10;91.20;;;;;;5094379;28;20439;-56
2022/06/11 02:08:19;;;;;;;10.45;7.63;;;19.10;91.20;;;;;;5114075;28;20256;-56
2022/06/11 02:11:08;;;;;;;10.65;8.05;;;19.10;91.00;;;;;;5105607;28;20047;-52
2022/06/11 02:14:18;;;;;;;8.57;7.70;;;19.10;90.80;;;;;;5079110;28;20082;-52
2022/06/11 02:17:20;;;;;;;9.15;8.25;;;19.00;91.00;;;;;;5110582;28;20096;-55
2022/06/11 02:20:08;;;;;;;8.57;7.80;;;19.00;91.00;;;;;;5115494;28;20058;-53
2022/06/11 02:22:52;;;;;;;9.70;7.85;;;19.00;91.10;;;;;;5095463;28;20067;-53
2022/06/11 02:25:47;;;;;;;9.18;8.27;;;19.10;91.00;;;;;;5095302;28;20085;-50
2022/06/11 02:28:33;;;;;;;;;;;19.00;91.60;;;;;;5109371;28;20050;-52
2022/06/11 02:31:23;;;;;;;8.23;7.43;;;19.00;92.20;;;;;;5106569;28;19978;-57
2022/06/11 02:34:08;;;;;;;10.15;8.75;;;19.10;92.40;;;;;;5094744;28;20118;-56
2022/06/11 02:37:24;;;;;;;10.13;8.05;;;18.90;92.20;;;;;;5105670;28;20089;-52
2022/06/11 02:40:26;;;;;;;10.48;7.93;;;18.80;92.50;;;;;;5114594;28;20042;-54
2022/06/11 02:43:11;;;;;;;9.10;8.23;;;18.90;92.60;;;;;;5111234;27;20107;-54
2022/06/11 02:45:55;;;;;;;7.90;7.10;;;19.00;92.40;;;;;;5127625;27;20043;-57
2022/06/11 02:48:40;;;;;;;8.98;8.07;;;19.00;92.20;;;;;;5113988;28;20031;-57
2022/06/11 02:51:26;;;;;;;8.63;7.70;;;18.90;92.30;;;;;;5113845;28;20634;-58
2022/06/11 02:54:11;;;;;;;8.15;7.35;;;19.00;92.50;;;;;;5114193;28;20401;-57
2022/06/11 02:56:58;;;;;;;7.97;7.18;;;19.00;92.50;;;;;;5096860;28;20082;-55
2022/06/11 02:59:43;;;;;;;8.48;7.68;;;19.10;92.30;;;;;;5093147;28;20039;-55
2022/06/11 03:02:28;;;;;;;10.15;7.45;;;19.10;92.70;;;;;;5093195;28;20098;-55
2022/06/11 03:05:13;;;;;;;9.63;8.70;;;19.10;92.50;;;;;;5078981;28;20035;-56
2022/06/11 03:07:59;;;;;;;9.70;7.80;;;19.20;92.40;;;;;;5113419;28;20514;-50
2022/06/11 03:10:43;;;;;;;12.68;8.57;;;19.10;92.70;;;;;;5108118;28;20062;-53
2022/06/11 03:13:28;;;;;;;10.27;9.10;;;19.00;93.00;;;;;;5097363;28;20031;-50
2022/06/11 03:16:13;;;;;;;14.25;8.43;;;18.80;93.90;;;;;;5113425;28;20066;-54
2022/06/11 03:18:57;;;;;;;11.02;8.32;;;18.80;94.00;;;;;;5109705;28;20050;-57
2022/06/11 03:21:42;;;;;;;;;;;18.90;93.70;;;;;;5121849;27;20041;-60
2022/06/11 03:24:26;;;;;;;9.75;8.70;;;19.10;93.50;;;;;;5134776;27;19911;-55
2022/06/11 03:27:10;;;;;;;;;;;19.00;93.30;;;;;;5111775;27;20121;-53
2022/06/11 03:29:55;;;;;;;11.15;8.98;;;19.10;93.50;;;;;;5119545;27;19954;-49
2022/06/11 03:32:39;;;;;;;;;;;19.10;93.60;;;;;;5113739;28;20050;-57
2022/06/11 03:35:23;;;;;;;11.50;8.95;;;19.10;93.80;;;;;;5095378;28;19915;-57
2022/06/11 03:38:08;;;;;;;12.05;9.23;;;19.10;93.80;;;;;;5092582;28;20062;-56
2022/06/11 03:40:52;;;;;;;16.60;10.25;;;19.20;93.80;;;;;;5111382;28;20402;-55
2022/06/11 03:43:37;;;;;;;10.13;8.73;;;19.10;93.80;;;;;;5110686;28;20043;-53
2022/06/11 03:46:22;;;;;;;9.77;8.88;;;19.20;93.80;;;;;;5095888;28;20702;-53
2022/06/11 03:49:06;;;;;;;8.32;7.50;;;19.20;93.40;;;;;;5096547;28;20502;-53
2022/06/11 03:51:51;;;;;;;11.35;8.27;;;19.30;93.30;;;;;;5112932;28;20479;-55
2022/06/11 03:54:35;;;;;;;;;;;19.30;93.00;;;;;;5105651;28;20035;-50
2022/06/11 03:57:19;;;;;;;10.57;7.68;;;19.30;92.70;;;;;;5092154;28;20326;-54
2022/06/11 04:00:06;;;;;;;9.57;7.90;;;19.30;92.50;;;;;;5093306;28;20127;-54
2022/06/11 04:02:50;;;;;;;8.52;7.22;;;19.40;92.10;;;;;;5092597;28;20039;-54
2022/06/11 04:05:35;;;;;;;10.73;7.80;;;19.40;91.90;;;;;;5106637;28;20564;-53
2022/06/11 04:08:22;;;;;;;8.48;7.53;;;19.40;91.20;;;;;;5112328;28;20054;-54
2022/06/11 04:11:07;;;;;;;9.98;7.60;;;19.20;91.80;;;;;;5093654;28;20035;-52
2022/06/11 04:13:52;;;;;;;7.72;6.95;;;19.00;91.90;;;;;;5091869;28;20078;-57
2022/06/11 04:16:43;;;;;;;8.77;6.55;;;19.10;92.00;;;;;;5091411;28;20060;-56
2022/06/11 04:19:36;;;;;;;9.63;7.88;;;19.10;92.10;;;;;;5080026;28;20038;-56
2022/06/11 04:22:21;;;;;;;8.23;7.40;;;19.00;92.40;;;;;;5115345;28;20034;-55
2022/06/11 04:25:06;;;;;;;8.70;7.28;;;19.00;93.20;;;;;;5108012;28;20079;-55
2022/06/11 04:27:53;;;;;;;8.40;7.53;;;19.00;93.80;;;;;;5131288;27;20030;-53
2022/06/11 04:30:38;;;;;;;8.63;7.65;;;19.00;93.90;;;;;;5124444;27;20081;-54
2022/06/11 04:33:23;;;;;;;8.75;7.57;;;19.10;93.80;;;;;;5101475;28;20453;-54
2022/06/11 04:36:07;;;;;;;8.68;6.35;;;19.10;93.80;;;;;;5104254;27;20026;-54
2022/06/11 04:38:51;;;;;;;9.45;7.07;;;19.20;93.70;;;;;;5113346;27;20078;-56
2022/06/11 04:41:35;;;;;;;7.63;6.82;;;19.40;92.60;;;;;;5116945;28;20036;-51
2022/06/11 04:44:20;;;;;;;;;;;19.40;92.70;;;;;;5082643;28;20046;-58
2022/06/11 04:47:05;;;;;;;10.23;7.45;;;19.30;92.80;;;;;;5107049;28;19958;-53
2022/06/11 04:49:51;;;;;;;7.82;6.32;;;19.20;93.10;;;;;;5115629;28;20034;-48
2022/06/11 04:52:36;;;;;;;8.90;6.63;;;19.20;93.30;;;;;;5100705;28;20031;-52
2022/06/11 04:55:20;;;;;;;;;;;19.30;92.90;;;;;;5087855;28;20035;-56
2022/06/11 04:58:05;;;;;;;10.85;7.05;;;19.40;92.40;;;;;;5107705;28;19918;-52
2022/06/11 05:00:49;;;;;;;;;;;19.50;92.00;;;;;;5115417;28;20391;-53
2022/06/11 05:03:34;;;;;;;8.88;6.57;;;19.50;91.60;;;;;;5115892;28;19918;-56
2022/06/11 05:06:23;;;;;;;7.28;6.57;;;19.50;91.80;;;;;;5089593;28;20125;-56
2022/06/11 05:09:10;;;;;;;10.90;6.05;;;19.60;91.90;;;;;;5078967;28;20093;-51
2022/06/11 05:11:55;;;;;;;11.27;6.43;;;19.60;91.90;;;;;;5109101;28;20205;-54
2022/06/11 05:14:39;;;;;;;7.55;5.43;;;19.70;91.50;;;;;;5115369;28;20165;-53
2022/06/11 05:17:24;;;;;;;;;;;19.80;91.10;;;;;;5097924;28;20067;-56
2022/06/11 05:20:09;;;;;;;8.60;5.45;;;19.80;91.20;;;;;;5095228;28;19927;-58
2022/06/11 05:22:54;;;;;;;6.78;5.35;;;19.90;91.10;;;;;;5123041;27;20140;-53
2022/06/11 05:25:40;;;;;;;6.95;5.78;;;20.00;91.00;;;;;;5095822;27;20597;-53
2022/06/11 05:28:29;;;;;;;7.72;5.65;;;20.10;90.80;;;;;;5107403;28;20450;-56
2022/06/11 05:31:13;;;;;;;8.52;5.30;;;20.10;90.70;;;;;;5078120;28;20039;-56
2022/06/11 05:33:58;;;;;;;6.10;5.03;;;20.20;90.70;;;;;;5096474;28;20069;-55
2022/06/11 05:36:42;;;;;;;7.05;5.40;;;20.20;90.60;;;;;;5098717;28;20054;-51
2022/06/11 05:39:27;;;;;;;8.50;5.30;;;20.20;90.40;;;;;;5091725;28;20036;-52
2022/06/11 05:42:11;;;;;;;7.53;5.18;;;20.30;90.30;;;;;;5094771;27;20051;-50
2022/06/11 05:44:56;;;;;;;;;;;20.30;90.20;;;;;;5124175;27;20045;-55
2022/06/11 05:47:41;;;;;;;6.68;5.25;;;20.40;90.30;;;;;;5114976;28;19915;-51
2022/06/11 05:50:29;;;;;;;9.13;5.35;;;20.40;90.30;;;;;;5104653;28;20124;-49
2022/06/11 05:53:17;;;;;;;8.63;5.22;;;20.50;89.80;;;;;;5109366;28;20137;-52
2022/06/11 05:56:04;;;;;;;7.53;5.43;;;20.50;90.00;;;;;;5099340;28;20023;-50
2022/06/11 05:58:55;;;;;;;8.75;5.82;;;20.50;90.00;;;;;;5114392;28;20399;-52
2022/06/11 06:01:41;;;;;;;8.98;5.70;;;20.50;90.10;;;;;;5112395;28;20470;-54
2022/06/11 06:04:25;;;;;;;9.05;5.72;;;20.50;90.00;;;;;;5094730;28;20039;-52
2022/06/11 06:07:10;;;;;;;7.07;5.38;;;20.50;90.00;;;;;;5094796;28;20082;-51
2022/06/11 06:09:54;;;;;;;6.47;4.90;;;20.60;90.10;;;;;;5078842;28;20534;-51
2022/06/11 06:12:39;;;;;;;6.82;5.10;;;20.80;90.10;;;;;;5094040;28;20043;-51
2022/06/11 06:15:26;;;;;;;10.90;5.13;;;20.90;89.90;;;;;;5104889;28;20046;-54
2022/06/11 06:18:10;;;;;;;8.05;5.60;;;21.00;89.50;;;;;;5114123;28;20062;-48
2022/06/11 06:20:54;;;;;;;7.28;5.30;;;21.10;88.70;;;;;;5108526;27;20050;-51
2022/06/11 06:23:41;;;;;;;7.13;5.40;;;21.00;88.40;;;;;;5119360;27;20074;-51
2022/06/11 06:26:26;;;;;;;11.60;5.72;;;20.90;88.80;;;;;;5091376;28;20512;-53
2022/06/11 06:29:14;;;;;;;7.60;5.68;;;20.90;89.00;;;;;;5106274;28;20038;-54
2022/06/11 06:32:07;;;;;;;6.90;5.32;;;20.90;88.80;;;;;;5116249;28;20062;-58
2022/06/11 06:34:51;;;;;;;8.27;4.97;;;21.00;88.80;;;;;;5085305;28;20034;-50
2022/06/11 06:37:35;;;;;;;5.68;4.45;;;21.10;88.80;;;;;;5097635;28;20099;-55
2022/06/11 06:40:23;;;;;;;8.55;5.13;;;21.20;89.20;;;;;;5114518;28;20170;-52
2022/06/11 06:43:08;;;;;;;9.38;7.22;;;21.30;89.10;;;;;;5115054;28;20034;-56
2022/06/11 06:45:52;;;;;;;8.45;5.10;;;21.40;89.00;;;;;;5079149;28;20038;-53
2022/06/11 06:48:37;;;;;;;10.55;5.90;;;21.40;89.30;;;;;;5113350;28;20075;-54
2022/06/11 06:51:21;;;;;;;5.57;4.45;;;21.40;88.80;;;;;;5102897;27;20123;-53
2022/06/11 06:54:05;;;;;;;7.40;4.88;;;21.60;88.60;;;;;;5116659;27;20398;-56
2022/06/11 06:56:49;;;;;;;7.55;4.78;;;21.70;88.90;;;;;;5134120;27;20042;-53
2022/06/11 06:59:33;;;;;;;7.00;5.35;;;21.90;88.60;;;;;;5093064;28;20106;-52
2022/06/11 07:02:18;;;;;;;8.15;4.60;;;21.90;87.40;;;;;;5127649;27;20035;-53
2022/06/11 07:05:03;;;;;;;9.63;4.90;;;21.90;87.40;;;;;;5129994;27;20080;-54
2022/06/11 07:07:48;;;;;;;6.28;4.57;;;21.90;88.10;;;;;;5093447;28;20039;-50
2022/06/11 07:10:33;;;;;;;8.55;4.50;;;22.00;87.60;;;;;;5097744;28;20089;-53
2022/06/11 07:13:19;;;;;;;6.75;4.70;;;22.10;88.10;;;;;;5097216;28;20026;-54
2022/06/11 07:16:04;;;;;;;7.80;4.10;;;22.20;87.80;;;;;;5104467;28;20101;-56
2022/06/11 07:18:53;;;;;;;7.55;4.55;;;22.20;87.00;;;;;;5077470;28;20071;-48
2022/06/11 07:21:43;;;;;;;6.22;4.13;;;22.40;85.80;;;;;;5105373;28;20416;-55
2022/06/11 07:24:31;;;;;;;5.05;3.85;;;22.50;85.30;;;;;;5097546;28;20039;-56
2022/06/11 07:27:23;;;;;;;4.93;3.58;;;22.50;83.50;;;;;;5109163;28;20031;-56
2022/06/11 07:30:12;;;;;;;6.68;3.45;;;22.70;83.90;;;;;;5109396;28;20105;-55
2022/06/11 07:33:21;;;;;;;7.88;3.50;;;22.70;81.90;;;;;;5061749;28;20062;-49
2022/06/11 07:36:06;;;;;;;8.98;4.20;;;22.80;80.90;;;;;;5099425;28;20046;-54
2022/06/11 07:38:50;;;;;;;9.07;3.75;;;22.90;80.40;;;;;;5099538;27;20081;-54
2022/06/11 07:41:35;;;;;;;4.40;3.00;;;22.90;79.70;;;;;;5102501;28;20196;-49
2022/06/11 07:44:19;;;;;;;7.55;3.45;;;23.00;78.80;;;;;;5130107;27;20184;-55
2022/06/11 07:47:07;;;;;;;5.75;3.20;;;23.10;78.60;;;;;;5114598;27;20047;-50
2022/06/11 07:49:52;;;;;;;6.75;3.30;;;23.10;78.40;;;;;;5111438;28;20054;-51
2022/06/11 07:52:36;;;;;;;6.80;3.33;;;23.20;77.50;;;;;;5076284;28;20059;-49
2022/06/11 07:55:21;;;;;;;;;;;23.20;77.60;;;;;;5076599;28;20101;-57
2022/06/11 07:58:07;;;;;;;8.00;3.10;;;23.20;77.50;;;;;;5092448;28;19990;-53
2022/06/11 08:00:53;;;;;;;4.25;3.03;;;23.30;77.00;;;;;;5097928;28;20096;-50
2022/06/11 08:03:38;;;;;;;5.93;3.30;;;23.30;77.50;;;;;;5119993;28;20596;-53
2022/06/11 08:06:24;;;;;;;6.97;3.63;;;23.30;77.10;;;;;;5096595;28;20031;-54
2022/06/11 08:09:08;;;;;;;5.97;3.20;;;23.30;77.40;;;;;;5111045;28;20039;-51
2022/06/11 08:11:53;;;;;;;5.10;2.90;;;23.40;77.30;;;;;;5116348;28;20035;-53
2022/06/11 08:14:37;;;;;;;5.78;3.30;;;23.60;75.60;;;;;;5067382;28;20070;-59
2022/06/11 08:17:21;;;;;;;6.70;3.30;;;23.70;76.00;;;;;;5111531;28;20034;-52
2022/06/11 08:20:07;;;;;;;4.97;2.75;;;23.70;76.10;;;;;;5115020;28;20066;-57
2022/06/11 08:22:52;;;;;;;4.75;3.00;;;23.70;75.70;;;;;;5110715;28;20050;-50
2022/06/11 08:25:37;;;;;;;6.80;3.40;;;23.70;76.00;;;;;;5108131;28;20034;-58
2022/06/11 08:28:22;;;;;;;4.38;3.10;;;23.80;75.80;;;;;;5112638;28;20133;-55
2022/06/11 08:31:06;;;;;;;4.55;3.10;;;23.90;75.90;;;;;;5111194;27;20078;-50
2022/06/11 08:33:50;;;;;;;10.35;3.30;;;24.00;75.50;;;;;;5078734;28;20038;-54
2022/06/11 08:36:35;;;;;;;6.57;3.10;;;23.80;75.60;;;;;;5093989;28;20046;-49
2022/06/11 08:39:19;;;;;;;10.02;3.20;;;23.80;75.50;;;;;;5121574;28;20034;-50
2022/06/11 08:42:04;;;;;;;4.45;2.80;;;23.90;75.80;;;;;;5115377;27;20129;-57
2022/06/11 08:44:48;;;;;;;5.63;3.38;;;23.80;75.50;;;;;;5101808;28;20034;-56
2022/06/11 08:47:41;;;;;;;4.55;2.78;;;23.80;76.00;;;;;;5091770;28;20174;-51
2022/06/11 08:50:33;;;;;;;9.63;3.20;;;23.90;75.00;;;;;;5101911;28;20387;-53
2022/06/11 08:53:17;;;;;;;4.85;3.10;;;23.90;75.60;;;;;;5102341;28;20059;-50
2022/06/11 08:56:01;;;;;;;5.35;3.08;;;24.00;75.30;;;;;;5102230;28;20499;-53
2022/06/11 08:59:10;;;;;;;3.72;2.83;;;24.00;75.30;;;;;;5100432;28;20047;-52
2022/06/11 09:02:21;;;;;;;7.75;3.00;;;24.00;76.40;;;;;;5101308;28;20070;-52
2022/06/11 09:05:24;;;;;;;6.13;3.00;;;24.30;75.30;;;;;;5106431;28;20030;-53
2022/06/11 09:08:18;;;;;;;5.13;3.25;;;24.20;74.00;;;;;;5093793;28;20039;-54
2022/06/11 09:11:08;;;;;;;7.40;3.50;;;24.40;73.60;;;;;;5111240;27;20551;-57
2022/06/11 09:14:05;;;;;;;4.90;3.03;;;24.20;73.90;;;;;;5118863;27;20494;-57
2022/06/11 09:16:52;;;;;;;6.78;3.25;;;23.90;74.50;;;;;;5083395;28;20039;-57
2022/06/11 09:20:03;;;;;;;8.00;3.22;;;23.80;75.30;;;;;;5116416;27;20030;-57
2022/06/11 09:23:13;;;;;;;6.20;3.33;;;23.90;73.70;;;;;;5135938;27;20216;-57
2022/06/11 09:25:58;;;;;;;4.95;3.00;;;24.30;74.00;;;;;;5102641;28;20179;-56
2022/06/11 09:28:59;;;;;;;6.32;3.10;;;24.60;73.70;;;;;;5111566;28;20383;-59
2022/06/11 09:32:06;;;;;;;6.30;3.50;;;24.40;74.10;;;;;;5094238;28;20467;-56
2022/06/11 09:34:56;;;;;;;5.22;2.88;;;24.20;74.90;;;;;;5121033;27;20042;-54
2022/06/11 09:37:51;;;;;;;6.07;3.60;;;23.90;73.80;;;;;;5114640;28;20110;-55
2022/06/11 09:40:50;;;;;;;10.85;3.30;;;23.90;73.90;;;;;;5103255;28;20094;-58
2022/06/11 09:44:14;;;;;;;5.75;3.20;;;24.00;74.40;;;;;;5116945;27;20114;-57
2022/06/11 09:47:10;;;;;;;6.43;3.30;;;24.10;73.60;;;;;;5075856;28;20043;-59
2022/06/11 09:50:23;;;;;;;6.72;3.55;;;24.10;73.70;;;;;;5100016;28;20064;-55
2022/06/11 09:53:17;;;;;;;5.93;3.35;;;24.10;73.30;;;;;;5101640;27;20047;-56
2022/06/11 09:56:28;;;;;;;6.73;3.93;;;24.10;73.40;;;;;;5103344;27;20038;-58
2022/06/11 09:59:30;;;;;;;6.15;3.38;;;24.10;73.50;;;;;;5113029;27;20030;-57
2022/06/11 10:02:31;;;;;;;6.38;3.22;;;24.20;74.10;;;;;;5115157;28;20178;-56
2022/06/11 10:05:23;;;;;;;6.72;3.53;;;24.20;74.20;;;;;;5117933;28;20043;-58
2022/06/11 10:08:22;;;;;;;5.35;2.88;;;24.40;72.90;;;;;;5118007;28;20092;-55
2022/06/11 10:11:22;;;;;;;6.53;3.58;;;24.40;71.20;;;;;;5100692;28;20092;-56
2022/06/11 10:14:30;;;;;;;3.30;2.80;;;24.60;71.80;;;;;;5098246;28;20031;-57
2022/06/11 10:17:28;;;;;;;5.07;2.80;;;24.80;69.80;;;;;;5101293;28;20279;-56
2022/06/11 10:20:25;;;;;;;6.65;3.20;;;25.30;67.70;;;;;;5081067;28;20125;-57
2022/06/11 10:23:17;;;;;;;6.15;3.33;;;25.60;71.80;;;;;;5093775;28;20027;-55
2022/06/11 10:26:01;;;;;;;6.97;3.60;;;25.60;71.70;;;;;;5096004;28;20241;-55
2022/06/11 10:29:07;;;;;;;5.88;3.80;;;25.50;72.60;;;;;;5114087;28;20026;-55
2022/06/11 10:31:58;;;;;;;7.45;3.70;;;25.10;72.60;;;;;;5115274;28;20446;-54
2022/06/11 10:35:12;;;;;;;7.07;3.65;;;24.90;73.40;;;;;;5113549;28;20445;-55
2022/06/11 10:38:41;;;;;;;6.07;3.40;;;25.40;72.30;;;;;;5097969;28;20063;-58
2022/06/11 10:41:35;;;;;;;5.28;3.30;;;25.60;71.60;;;;;;5098098;28;20077;-56
2022/06/11 10:44:35;;;;;;;5.05;3.33;;;25.60;69.40;;;;;;5109142;28;20058;-55
2022/06/11 10:47:27;;;;;;;5.15;3.20;;;25.70;70.60;;;;;;5112409;28;20123;-56
2022/06/11 10:50:12;;;;;;;7.63;3.30;;;25.50;69.40;;;;;;5111454;28;20085;-58
2022/06/11 10:53:01;;;;;;;6.30;3.45;;;25.30;70.80;;;;;;5112799;28;20026;-54
2022/06/11 10:55:50;;;;;;;5.20;2.95;;;25.60;70.80;;;;;;5096488;28;20063;-56
2022/06/11 10:58:53;;;;;;;5.47;2.90;;;25.60;69.80;;;;;;5093553;28;20055;-55
2022/06/11 11:01:56;;;;;;;8.38;3.42;;;25.40;70.20;;;;;;5093196;28;20035;-58
2022/06/11 11:05:00;;;;;;;4.97;3.30;;;25.50;72.20;;;;;;5098776;28;20039;-56
2022/06/11 11:07:58;;;;;;;6.07;3.25;;;25.30;73.00;;;;;;5097495;28;20117;-55
2022/06/11 11:10:46;;;;;;;6.43;3.50;;;25.30;73.20;;;;;;5097614;28;20086;-59
2022/06/11 11:13:36;;;;;;;6.40;3.58;;;25.20;73.20;;;;;;5103474;28;20073;-58
2022/06/11 11:16:26;;;;;;;5.32;3.28;;;25.30;72.80;;;;;;5113145;28;20074;-56
2022/06/11 11:19:16;;;;;;;6.82;3.45;;;25.60;71.80;;;;;;5103522;28;20048;-57
2022/06/11 11:22:03;;;;;;;4.85;3.00;;;25.80;70.60;;;;;;5092694;28;20038;-55
2022/06/11 11:24:54;;;;;;;4.53;3.17;;;26.00;68.80;;;;;;5106455;28;20043;-59
2022/06/11 11:27:44;;;;;;;6.03;3.20;;;25.90;69.00;;;;;;5108217;28;20640;-58
2022/06/11 11:30:39;;;;;;;5.75;3.15;;;25.90;69.60;;;;;;5093705;28;20501;-59
2022/06/11 11:33:32;;;;;;;4.10;2.88;;;25.90;68.70;;;;;;5093188;28;20039;-56
2022/06/11 11:36:23;;;;;;;4.43;2.75;;;25.90;69.20;;;;;;5094038;28;20457;-57
2022/06/11 11:39:13;;;;;;;5.68;2.95;;;25.80;68.50;;;;;;5109333;28;20394;-60
2022/06/11 11:42:07;;;;;;;6.38;2.80;;;25.80;68.80;;;;;;5096467;28;20039;-54
2022/06/11 11:44:57;;;;;;;3.90;2.60;;;26.00;68.70;;;;;;5093317;28;20031;-56
2022/06/11 11:47:41;;;;;;;3.85;2.85;;;26.10;67.80;;;;;;5109568;28;20086;-59
2022/06/11 11:50:31;;;;;;;5.93;3.20;;;25.80;67.20;;;;;;5112787;28;20089;-57
2022/06/11 11:53:25;;;;;;;5.65;2.92;;;25.60;68.30;;;;;;5114645;28;20031;-58
2022/06/11 11:57:11;;;;;;;5.65;2.97;;;25.70;69.50;;;;;;5098336;28;20077;-57
2022/06/11 12:00:31;;;;;;;5.70;3.28;;;25.70;69.50;;;;;;5082614;27;20038;-55
2022/06/11 12:03:30;;;;;;;6.50;3.00;;;25.60;67.70;;;;;;5121894;27;20497;-59
2022/06/11 12:06:25;;;;;;;6.93;3.08;;;25.30;68.00;;;;;;5079379;28;20091;-59
2022/06/11 12:09:27;;;;;;;4.50;2.97;;;25.10;68.20;;;;;;5086565;28;20034;-59
2022/06/11 12:12:13;;;;;;;7.90;3.10;;;25.20;68.80;;;;;;5094829;28;20530;-59
2022/06/11 12:15:12;;;;;;;7.57;3.58;;;25.30;69.80;;;;;;5108242;28;20154;-60
2022/06/11 12:18:16;;;;;;;5.10;3.35;;;25.00;74.40;;;;;;5105765;28;20042;-59
2022/06/11 12:21:10;;;;;;;5.75;3.78;;;24.60;76.30;;;;;;5113035;28;20058;-60
2022/06/11 12:24:02;;;;;;;5.90;3.90;;;24.30;77.30;;;;;;5097239;28;20086;-62
2022/06/11 12:26:52;;;;;;;6.82;3.42;;;24.30;77.20;;;;;;5093255;28;20035;-61
2022/06/11 12:29:52;;;;;;;6.55;3.58;;;24.30;77.10;;;;;;5101645;28;20035;-60
2022/06/11 12:32:36;;;;;;;11.05;4.22;;;24.20;77.10;;;;;;5112336;28;20066;-60
2022/06/11 12:35:39;;;;;;;4.65;3.20;;;24.30;77.00;;;;;;5096805;28;20034;-61
2022/06/11 12:38:43;;;;;;;6.47;3.50;;;24.30;76.70;;;;;;5111800;28;20031;-56
2022/06/11 12:41:45;;;;;;;5.97;3.50;;;24.50;77.00;;;;;;5102373;28;20035;-56
2022/06/11 12:44:44;;;;;;;9.18;3.50;;;24.50;76.70;;;;;;5136808;27;20034;-54
2022/06/11 12:47:29;;;;;;;6.25;3.30;;;24.60;76.40;;;;;;5121999;27;20058;-54
2022/06/11 12:50:38;;;;;;;5.53;3.13;;;24.70;75.90;;;;;;5116871;28;20078;-55
2022/06/11 12:53:45;;;;;;;7.15;3.60;;;24.90;76.10;;;;;;5116495;28;20092;-52
2022/06/11 12:56:42;;;;;;;4.97;3.35;;;24.80;76.20;;;;;;5096656;28;20043;-58
2022/06/11 12:59:38;;;;;;;5.70;3.50;;;25.10;75.00;;;;;;5105805;28;20030;-58
2022/06/11 13:02:39;;;;;;;5.18;3.38;;;25.40;74.70;;;;;;5117394;28;20513;-54
2022/06/11 13:05:45;;;;;;;6.68;3.40;;;25.40;73.70;;;;;;5097196;28;20146;-55
2022/06/11 13:08:56;;;;;;;4.97;3.33;;;25.60;73.80;;;;;;5094415;28;20031;-53
2022/06/11 13:11:49;;;;;;;4.45;3.53;;;25.50;72.70;;;;;;5079887;28;20093;-56
2022/06/11 13:14:51;;;;;;;7.40;3.42;;;25.50;73.50;;;;;;5113983;28;20465;-58
2022/06/11 13:17:49;;;;;;;7.20;3.28;;;25.40;74.00;;;;;;5102456;28;20494;-51
2022/06/11 13:20:37;;;;;;;8.00;3.55;;;25.50;74.80;;;;;;5096284;28;20170;-52
2022/06/11 13:23:25;;;;;;;4.53;3.40;;;25.40;73.90;;;;;;5094582;28;20035;-52
2022/06/11 13:26:16;;;;;;;6.20;3.38;;;25.30;74.00;;;;;;5097995;28;20023;-56
2022/06/11 13:29:15;;;;;;;5.20;3.42;;;25.30;74.20;;;;;;5109442;28;20050;-53
2022/06/11 13:32:02;;;;;;;7.18;3.58;;;25.30;74.30;;;;;;5116700;28;20121;-56
2022/06/11 13:34:56;;;;;;;6.85;3.33;;;25.30;74.60;;;;;;5118186;28;20059;-57
2022/06/11 13:37:46;;;;;;;6.18;3.40;;;25.30;74.60;;;;;;5103684;28;20038;-60
2022/06/11 13:40:51;;;;;;;6.70;3.60;;;25.30;74.80;;;;;;5116542;28;20433;-55
2022/06/11 13:43:56;;;;;;;7.57;3.30;;;25.20;74.40;;;;;;5115041;28;20565;-56
2022/06/11 13:46:56;;;;;;;4.72;3.30;;;25.20;74.40;;;;;;5114036;28;20069;-54
2022/06/11 13:50:02;;;;;;;10.05;4.25;;;25.20;75.20;;;;;;5114934;28;20030;-53
2022/06/11 13:56:54;;;;;;;6.00;3.50;;;25.90;73.90;;;;;;5113059;28;20041;-54
2022/06/11 13:59:56;;;;;;;6.43;3.88;;;25.90;74.30;;;;;;5114581;28;20096;-53
2022/06/11 14:02:46;;;;;;;5.82;3.97;;;25.80;73.80;;;;;;5114683;28;20565;-58
2022/06/11 14:05:36;;;;;;;10.85;6.15;;;25.90;74.00;;;;;;5099120;28;20435;-55
2022/06/11 14:08:30;;;;;;;8.60;4.32;;;26.30;73.40;;;;;;5114917;28;20031;-56
2022/06/11 14:11:37;;;;;;;5.65;3.38;;;26.90;72.60;;;;;;5113986;28;20165;-57
2022/06/11 14:14:39;;;;;;;7.78;4.57;;;27.00;71.50;;;;;;5098963;28;20513;-53
2022/06/11 14:17:46;;;;;;;6.35;3.85;;;27.00;71.90;;;;;;5115096;28;20062;-54
2022/06/11 14:20:31;;;;;;;7.63;4.32;;;26.60;72.60;;;;;;5114120;28;20031;-58
2022/06/11 14:23:15;;;;;;;6.47;3.67;;;26.20;73.00;;;;;;5114452;28;20030;-55
2022/06/11 14:26:02;;;;;;;;;;;25.90;74.10;;;;;;5099179;28;20058;-57
2022/06/11 14:29:00;;;;;;;7.95;4.85;;;25.90;74.60;;;;;;5114399;28;19911;-57
2022/06/11 14:31:56;;;;;;;7.35;4.18;;;26.00;74.50;;;;;;5114277;28;20434;-55
2022/06/11 14:34:57;;;;;;;7.05;4.70;;;26.00;74.10;;;;;;5113959;28;20136;-52
2022/06/11 14:37:42;;;;;;;9.27;4.28;;;26.00;74.20;;;;;;5113469;28;20039;-53
2022/06/11 14:40:30;;;;;;;8.90;4.20;;;26.10;73.50;;;;;;5113028;28;20124;-55
2022/06/11 14:43:20;;;;;;;6.35;4.50;;;26.30;73.80;;;;;;5113250;28;20123;-54
2022/06/11 14:46:42;;;;;;;8.65;4.32;;;26.40;73.20;;;;;;5113451;28;20125;-56
2022/06/11 14:49:39;;;;;;;7.40;4.18;;;26.40;72.80;;;;;;5113748;28;20030;-57
2022/06/11 14:52:32;;;;;;;6.13;3.75;;;26.80;72.30;;;;;;5113819;28;20518;-57
2022/06/11 14:55:25;;;;;;;7.90;3.67;;;26.90;72.40;;;;;;5113852;28;20027;-57
2022/06/11 14:58:21;;;;;;;6.30;3.80;;;27.20;70.50;;;;;;5113312;28;20047;-59